PASY METAR and TAF weather

Enter ICAO airport designator
Station Type Date Time Source
PASY METAR 2021/09/16 20:59 UTC NOAA

PASY 162059Z 27009KT 20SM FEW030 FEW100 BKN220 11/07 A3026 RMK AO2A SLP249 T01070073 51026 RVRNO PNO $


Station Type Date Time Source
PASY Decoded METAR 2021/09/16 20:59 UTC NOAA

SHEMYA EARECKSON AS, AK, United States (PASY) 52-43N 174-07E
Sep 16, 2021 - 04:59 PM EDT / 2021.09.16 2059 UTC
Wind: from the W (270 degrees) at 10 MPH (9 KT):0
Visibility: 20 mile(s):0
Sky conditions: mostly cloudy
Temperature: 51.3 F (10.7 C)
Dew Point: 45.1 F (7.3 C)
Relative Humidity: 79%
Pressure (altimeter): 30.26 in. Hg (1024 hPa)
Pressure tendency: 0.08 inches (2.6 hPa) higher than three hours ago
ob: PASY 162059Z 27009KT 20SM FEW030 FEW100 BKN220 11/07 A3026 RMK AO2A SLP249 T01070073 51026 RVRNO PNO
cycle: 21

Station Type Date Time Source
PASY TAF 2021/09/16 14:13 UTC NOAA

TAF PASY 161400Z 1614/1720 32018KT 9999 FEW015 SCT025 QNH3008INS
BECMG 1618/1619 31015KT 9999 SCT025 OVC035 QNH3015INS
BECMG 1700/1701 28009KT 9999 SCT025 OVC035 QNH3023INS
TEMPO 1714/1716 VRB06KT
BECMG 1716/1717 11009KT 9999 SCT025 OVC035 QNH3002INS TX10/1710Z TN08/1618Z LIMITED METWATCH 1601 TIL 1617

Example: see airport list